Time;durP1;ratioP1;P1;durP2;ratioP2;P2;SDS_P1;SDS_P2;PMS_P1;PMS_P2;Temp;Humidity;BMP_temperature;BMP_pressure;BME280_temperature;BME280_humidity;BME280_pressure;Samples;Min_cycle;Max_cycle;Signal;HPM_P1;HPM_P2
2022/06/03 00:02:44;;;;;;;16.23;10.80;;;;;;;29.02;76.69;100766.94;5063517;28;65240;-39
2022/06/03 00:05:47;;;;;;;15.43;11.80;;;;;;;28.86;76.59;100733.09;5072329;28;69164;-40
2022/06/03 00:08:37;;;;;;;20.02;11.85;;;;;;;29.05;77.25;100764.66;5070008;28;66624;-39
2022/06/03 00:11:20;;;;;;;16.10;12.50;;;;;;;29.14;77.04;100762.56;5067978;28;70232;-40
2022/06/03 00:14:26;;;;;;;21.75;13.23;;;;;;;29.09;77.48;100784.00;5080498;28;65482;-40
2022/06/03 00:17:15;;;;;;;23.42;14.00;;;;;;;29.12;78.36;100770.88;5070607;28;70046;-40
2022/06/03 00:20:13;;;;;;;23.60;13.32;;;;;;;29.15;78.42;100770.47;5082213;28;65231;-39
2022/06/03 00:23:28;;;;;;;13.77;12.48;;;;;;;29.12;78.47;100778.16;5064371;28;70883;-40
2022/06/03 00:26:43;;;;;;;14.40;12.95;;;;;;;29.18;78.23;100774.63;5048860;28;65065;-40
2022/06/03 00:29:24;;;;;;;15.95;12.95;;;;;;;29.30;78.29;100788.28;5044236;28;69083;-40
2022/06/03 00:32:24;;;;;;;22.83;15.48;;;;;;;28.92;78.87;100727.69;5080375;28;65328;-39
2022/06/03 00:35:04;;;;;;;18.75;14.50;;;;;;;29.34;78.32;100784.16;5071196;28;70012;-40
2022/06/03 00:37:53;;;;;;;18.05;15.02;;;;;;;29.30;78.42;100786.41;5082152;28;66681;-41
2022/06/03 00:40:45;;;;;;;22.42;15.60;;;;;;;29.22;78.25;100778.53;5078849;28;69467;-43
2022/06/03 00:43:56;;;;;;;20.27;15.93;;;;;;;29.28;78.42;100796.63;5076624;28;66352;-40
2022/06/03 00:46:54;;;;;;;17.20;14.88;;;;;;;29.31;78.41;100793.50;5055133;28;69188;-41
2022/06/03 00:49:28;;;;;;;19.90;15.80;;;;;;;29.42;78.08;100808.22;5072952;28;66180;-40
2022/06/03 00:52:27;;;;;;;19.40;15.13;;;;;;;29.11;78.86;100746.78;5073379;28;70395;-39
2022/06/03 00:55:19;;;;;;;19.38;15.90;;;;;;;29.39;78.83;100809.50;5072370;28;65704;-40
2022/06/03 00:58:11;;;;;;;17.42;15.32;;;;;;;29.53;78.23;100814.84;5079894;28;70168;-39
2022/06/03 01:00:53;;;;;;;25.33;16.00;;;;;;;29.44;78.67;100811.53;5067097;28;66492;-41
2022/06/03 01:03:42;;;;;;;22.13;15.77;;;;;;;29.50;78.48;100823.38;5064080;28;69898;-40
2022/06/03 01:06:28;;;;;;;21.65;15.30;;;;;;;29.62;78.04;100827.09;5079588;28;66200;-40
2022/06/03 01:09:27;;;;;;;25.73;15.48;;;;;;;28.85;78.01;100716.06;5081038;28;69940;-40
2022/06/03 01:12:22;;;;;;;20.90;15.30;;;;;;;29.69;77.25;100827.09;5064523;28;66314;-39
2022/06/03 01:15:22;;;;;;;19.90;15.85;;;;;;;29.64;77.53;100838.53;5079879;28;69956;-41
2022/06/03 01:18:10;;;;;;;26.95;16.15;;;;;;;29.46;77.13;100787.00;5072543;28;65374;-40
2022/06/03 01:21:02;;;;;;;19.98;15.52;;;;;;;29.77;77.38;100833.09;5059032;28;69298;-40
2022/06/03 01:24:01;;;;;;;16.52;14.82;;;;;;;29.73;78.00;100841.84;5060772;28;65800;-41
2022/06/03 01:27:09;;;;;;;24.80;16.95;;;;;;;29.30;78.12;100767.50;5072353;28;69933;-41
2022/06/03 01:29:46;;;;;;;17.05;15.15;;;;;;;29.86;77.98;100838.25;5066037;28;66292;-39
2022/06/03 01:32:39;;;;;;;14.05;13.02;;;;;;;30.04;75.68;100843.78;5074940;28;69265;-41
2022/06/03 01:35:15;;;;;;;;;;;;;;;29.74;76.65;100843.50;5061506;28;66196;-39
2022/06/03 01:38:16;;;;;;;15.45;12.65;;;;;;;30.09;75.26;100852.09;5071254;28;70261;-40
2022/06/03 01:40:59;;;;;;;13.57;12.30;;;;;;;30.24;73.79;100843.72;5067888;28;65290;-39
2022/06/03 01:44:26;;;;;;;13.13;11.93;;;;;;;30.14;74.47;100844.13;5075622;28;69647;-39
2022/06/03 01:47:25;;;;;;;13.05;12.05;;;;;;;30.27;74.26;100844.09;4991049;28;65421;-40
2022/06/03 01:50:25;;;;;;;13.50;12.23;;;;;;;30.04;73.58;100790.53;4969593;28;69185;-39
2022/06/03 01:53:14;;;;;;;15.02;13.70;;;;;;;30.48;73.04;100850.25;5072971;28;66186;-40
2022/06/03 01:56:13;;;;;;;13.80;12.48;;;;;;;30.44;73.44;100851.72;5057377;28;70167;-40
2022/06/03 01:59:05;;;;;;;13.02;11.65;;;;;;;30.00;72.74;100777.63;5043155;28;65459;-40
2022/06/03 02:02:27;;;;;;;13.67;12.20;;;;;;;30.50;72.48;100845.41;5066887;28;70398;-40
2022/06/03 02:05:31;;;;;;;11.90;10.82;;;;;;;30.58;72.02;100855.97;5037173;28;66082;-40
2022/06/03 02:08:50;;;;;;;12.00;10.80;;;;;;;30.50;71.84;100842.72;5077797;28;70163;-40
2022/06/03 02:11:58;;;;;;;11.90;10.82;;;;;;;30.58;71.48;100838.91;5077649;28;67251;-40
2022/06/03 02:15:09;;;;;;;11.52;10.63;;;;;;;30.61;71.43;100844.72;5057892;28;69357;-41
2022/06/03 02:18:03;;;;;;;12.07;10.95;;;;;;;30.25;70.94;100781.25;5070718;28;65444;-40
2022/06/03 02:20:55;;;;;;;11.55;10.32;;;;;;;30.76;70.63;100854.38;5078949;28;70008;-39
2022/06/03 02:23:53;;;;;;;10.82;9.80;;;;;;;30.44;70.78;100786.75;5047029;28;65914;-40
2022/06/03 02:27:01;;;;;;;10.63;9.60;;;;;;;30.83;70.06;100855.22;5062152;28;70325;-39
2022/06/03 02:33:14;;;;;;;10.15;9.18;;;;;;;30.88;70.31;100860.81;5070434;28;70583;-40
2022/06/03 02:36:07;;;;;;;9.38;8.68;;;;;;;31.01;69.93;100862.56;5059549;28;64974;-40
2022/06/03 02:38:59;;;;;;;9.93;8.95;;;;;;;30.93;70.23;100855.56;5077560;28;70135;-40
2022/06/03 02:41:54;;;;;;;10.02;9.20;;;;;;;31.02;69.60;100856.91;5064691;28;65647;-41
2022/06/03 02:44:49;;;;;;;9.20;8.48;;;;;;;31.09;69.20;100857.72;5071610;28;70450;-40
2022/06/03 02:47:50;;;;;;;8.98;8.23;;;;;;;31.09;69.24;100856.84;5071667;28;67266;-40
2022/06/03 02:50:30;;;;;;;;;;;;;;;30.84;69.47;100848.72;5076790;28;69489;-41
2022/06/03 02:53:17;;;;;;;8.38;7.82;;;;;;;31.13;69.02;100845.34;5066336;27;66018;-41
2022/06/03 02:56:06;;;;;;;9.18;8.02;;;;;;;31.14;69.22;100841.59;5064766;28;69662;-39
2022/06/03 02:59:10;;;;;;;9.63;8.75;;;;;;;31.15;68.68;100840.56;5061113;28;65728;-42
2022/06/03 03:02:04;;;;;;;8.55;7.72;;;;;;;31.16;68.29;100836.78;5062990;28;70153;-40
2022/06/03 03:04:41;;;;;;;8.73;7.93;;;;;;;31.29;68.60;100835.00;5061391;28;66813;-40
2022/06/03 03:07:47;;;;;;;9.57;7.70;;;;;;;31.23;68.73;100831.31;5082095;28;69810;-40
2022/06/03 03:10:36;;;;;;;8.13;7.43;;;;;;;31.24;68.83;100824.00;5062582;28;65691;-40
2022/06/03 03:13:28;;;;;;;7.97;7.38;;;;;;;31.25;68.53;100823.75;5079885;28;70384;-40
2022/06/03 03:16:14;;;;;;;7.32;6.75;;;;;;;31.33;67.93;100820.75;5068367;28;66569;-40
2022/06/03 03:19:01;;;;;;;7.30;6.80;;;;;;;31.40;68.51;100820.75;5081982;28;70102;-40
2022/06/03 03:22:09;;;;;;;11.10;7.50;;;;;;;31.34;67.92;100821.59;5076830;28;66753;-40
2022/06/03 03:25:07;;;;;;;7.30;6.80;;;;;;;31.39;67.94;100816.34;5077481;28;69336;-40
2022/06/03 03:27:59;;;;;;;7.68;7.00;;;;;;;31.39;67.42;100802.81;5082047;28;65988;-40
2022/06/03 03:30:50;;;;;;;8.07;6.95;;;;;;;31.16;67.48;100735.69;5061514;28;70720;-40
2022/06/03 03:33:43;;;;;;;7.82;7.10;;;;;;;31.39;67.33;100776.53;5075428;28;66251;-40
2022/06/03 03:36:39;;;;;;;7.38;6.78;;;;;;;31.60;67.48;100775.25;5061393;28;69036;-40
2022/06/03 03:40:02;;;;;;;7.55;6.88;;;;;;;31.53;67.58;100771.78;5063338;28;65306;-40
2022/06/03 03:42:45;;;;;;;7.07;6.38;;;;;;;31.62;67.30;100769.56;5070550;28;69204;-40
2022/06/03 03:45:34;;;;;;;6.88;6.18;;;;;;;31.63;67.15;100768.53;5071024;28;65670;-40
2022/06/03 03:48:16;;;;;;;6.97;6.47;;;;;;;31.70;66.94;100760.31;5068312;28;69851;-40
2022/06/03 03:51:26;;;;;;;6.22;5.78;;;;;;;31.66;67.32;100759.13;5057630;28;65709;-40
2022/06/03 03:54:44;;;;;;;6.63;6.13;;;;;;;31.63;66.91;100748.72;5078085;28;70613;-40
2022/06/03 03:57:31;;;;;;;6.70;6.10;;;;;;;31.36;66.85;100700.25;5080016;28;66522;-41
2022/06/03 04:00:37;;;;;;;6.32;5.93;;;;;;;31.83;66.69;100750.09;5060701;28;69209;-41
2022/06/03 04:03:19;;;;;;;6.93;6.07;;;;;;;31.86;66.71;100753.41;5027931;28;65696;-40
2022/06/03 04:06:41;;;;;;;6.93;6.43;;;;;;;31.77;66.39;100751.03;5074391;28;70212;-40
2022/06/03 04:09:34;;;;;;;6.32;5.72;;;;;;;31.42;66.51;100683.06;5042632;28;66113;-40
2022/06/03 04:12:13;;;;;;;6.78;6.13;;;;;;;31.93;66.49;100737.88;5079443;28;69597;-40
2022/06/03 04:15:13;;;;;;;5.90;5.50;;;;;;;31.90;66.01;100736.47;5066155;28;66017;-40
2022/06/03 04:17:53;;;;;;;6.47;6.00;;;;;;;31.95;65.80;100727.66;5064747;28;70641;-41
2022/06/03 04:20:51;;;;;;;6.63;6.13;;;;;;;31.88;66.22;100729.63;5069570;28;65694;-41
2022/06/03 04:23:50;;;;;;;6.05;5.65;;;;;;;31.90;65.96;100728.31;5067067;28;69175;-41
2022/06/03 04:26:21;;;;;;;6.63;5.95;;;;;;;31.98;66.18;100722.59;5064797;28;66623;-42
2022/06/03 04:29:37;;;;;;;7.57;6.13;;;;;;;32.00;65.76;100723.19;5061916;28;70204;-41
2022/06/03 04:32:38;;;;;;;6.97;6.28;;;;;;;31.91;66.13;100719.16;5060097;28;65981;-41
2022/06/03 04:35:45;;;;;;;6.70;6.20;;;;;;;31.95;65.48;100709.47;5066514;28;70211;-41
2022/06/03 04:38:38;;;;;;;7.03;6.40;;;;;;;31.90;65.82;100711.19;5065719;28;67150;-40
2022/06/03 04:41:37;;;;;;;5.95;5.55;;;;;;;31.99;65.35;100688.16;5063021;28;70065;-40
2022/06/03 04:44:26;;;;;;;6.07;5.68;;;;;;;31.95;65.42;100686.94;5064180;28;66440;-41
2022/06/03 04:47:03;;;;;;;7.00;6.40;;;;;;;32.05;65.88;100684.50;5078020;28;70816;-41
2022/06/03 04:49:58;;;;;;;9.23;5.90;;;;;;;31.99;65.41;100688.16;5070495;28;66233;-41
2022/06/03 04:53:11;;;;;;;6.18;5.78;;;;;;;31.93;65.29;100676.34;5078661;28;70424;-39
2022/06/03 04:59:13;;;;;;;6.90;6.40;;;;;;;32.13;65.42;100688.78;5062477;28;43139;-40
2022/06/03 05:02:09;;;;;;;7.15;6.45;;;;;;;32.05;65.06;100682.63;5077496;28;70650;-41
2022/06/03 05:05:17;;;;;;;6.95;6.38;;;;;;;32.08;65.22;100675.06;5075526;28;65363;-41
2022/06/03 05:07:56;;;;;;;6.65;6.15;;;;;;;32.20;65.13;100673.19;5072649;27;69827;-41
2022/06/03 05:10:45;;;;;;;7.13;6.63;;;;;;;32.22;65.56;100665.66;5068283;28;66182;-41
2022/06/03 05:13:39;;;;;;;7.20;6.20;;;;;;;32.06;64.89;100640.03;5061228;28;69616;-41
2022/06/03 05:17:00;;;;;;;7.05;6.57;;;;;;;32.04;65.02;100637.56;5057061;27;66724;-41
2022/06/03 05:19:57;;;;;;;6.20;5.80;;;;;;;32.17;64.91;100646.53;5101740;27;70486;-41
2022/06/03 05:22:45;;;;;;;6.50;6.00;;;;;;;32.21;64.89;100624.13;5062400;27;66671;-41
2022/06/03 05:25:31;;;;;;;5.97;5.53;;;;;;;32.26;64.37;100639.69;5063788;28;70684;-41
2022/06/03 05:28:14;;;;;;;6.47;5.95;;;;;;;32.34;64.33;100625.75;5075246;27;66023;-41
2022/06/03 05:31:21;;;;;;;9.65;5.85;;;;;;;32.12;64.65;100605.69;5066004;27;70064;-41
2022/06/03 05:33:59;;;;;;;6.18;5.78;;;;;;;32.38;64.59;100628.84;5065256;28;66013;-41
2022/06/03 05:36:44;;;;;;;6.43;5.88;;;;;;;32.39;64.42;100623.16;5072984;27;70117;-42
2022/06/03 05:39:34;;;;;;;5.30;4.95;;;;;;;32.31;64.61;100615.38;5058576;28;66289;-41
2022/06/03 05:42:29;;;;;;;5.82;5.43;;;;;;;32.41;64.44;100609.38;5053725;28;69639;-42
2022/06/03 05:44:59;;;;;;;6.25;5.78;;;;;;;32.42;64.53;100611.81;5055908;28;65349;-41
2022/06/03 05:47:48;;;;;;;7.70;5.78;;;;;;;32.40;64.32;100603.13;5055175;28;70398;-41
2022/06/03 05:50:53;;;;;;;6.75;6.28;;;;;;;32.33;64.07;100602.41;5066632;27;66731;-41
2022/06/03 05:54:00;;;;;;;6.40;6.00;;;;;;;32.30;64.26;100583.88;5067175;27;70193;-41
2022/06/03 05:56:48;;;;;;;14.30;13.25;;;;;;;32.38;65.38;100588.94;5052635;28;66391;-43
2022/06/03 05:59:53;;;;;;;25.35;21.73;;;;;;;32.35;66.23;100588.59;5071379;28;69928;-44
2022/06/03 06:02:27;;;;;;;33.67;30.35;;;;;;;32.45;66.32;100588.81;5062153;27;66972;-42
2022/06/03 06:05:14;;;;;;;36.53;32.90;;;;;;;32.45;66.90;100592.34;5054144;28;70088;-44
2022/06/03 06:08:26;;;;;;;37.97;34.08;;;;;;;32.35;67.10;100589.41;5063488;28;65545;-44
2022/06/03 06:11:12;;;;;;;35.30;31.95;;;;;;;32.36;67.42;100582.09;5050207;28;69812;-44
2022/06/03 06:13:55;;;;;;;37.00;33.40;;;;;;;32.44;67.03;100588.00;5056859;28;66091;-44
2022/06/03 06:16:37;;;;;;;35.72;32.30;;;;;;;32.49;66.75;100596.28;5055169;28;70153;-44
2022/06/03 06:19:37;;;;;;;32.80;29.52;;;;;;;32.37;67.44;100594.59;5053666;28;66367;-43
2022/06/03 06:22:30;;;;;;;30.42;27.65;;;;;;;32.34;67.47;100582.31;5059050;28;70174;-43
2022/06/03 06:25:51;;;;;;;28.45;25.80;;;;;;;32.30;68.16;100586.59;5061829;28;65895;-42
2022/06/03 06:28:34;;;;;;;27.42;24.95;;;;;;;32.43;67.79;100591.78;5031132;28;70304;-40
2022/06/03 06:31:13;;;;;;;25.65;23.13;;;;;;;32.42;68.13;100594.72;5048626;28;66307;-41
2022/06/03 06:33:47;;;;;;;23.05;20.83;;;;;;;32.44;67.64;100598.03;5036008;28;69061;-39
2022/06/03 06:36:45;;;;;;;22.13;20.20;;;;;;;32.44;67.66;100609.72;5047678;28;66318;-40
2022/06/03 06:39:46;;;;;;;20.13;18.63;;;;;;;32.40;67.67;100618.56;5044937;28;69919;-40
2022/06/03 06:42:25;;;;;;;18.60;16.92;;;;;;;32.52;67.40;100615.88;5044573;28;66686;-40
2022/06/03 06:45:23;;;;;;;18.10;16.70;;;;;;;32.46;67.56;100607.63;5046209;28;69602;-39
2022/06/03 06:48:02;;;;;;;19.08;16.20;;;;;;;32.56;67.48;100612.44;5045712;28;66372;-42
2022/06/03 06:51:22;;;;;;;16.13;14.65;;;;;;;32.43;67.73;100612.66;5046158;28;70596;-40
2022/06/03 06:54:16;;;;;;;15.27;14.05;;;;;;;32.13;67.09;100520.53;5053812;28;65988;-39
2022/06/03 06:57:15;;;;;;;13.57;12.70;;;;;;;32.48;67.07;100593.78;5036487;28;70549;-40
2022/06/03 07:00:14;;;;;;;13.85;12.55;;;;;;;32.45;67.20;100588.81;5048108;28;66057;-40
2022/06/03 07:03:11;;;;;;;12.68;11.43;;;;;;;32.19;66.92;100525.00;5041226;28;69862;-39
2022/06/03 07:05:51;;;;;;;12.30;10.95;;;;;;;32.33;66.56;100567.13;5041940;28;66096;-40
2022/06/03 07:08:32;;;;;;;11.70;10.70;;;;;;;32.45;66.79;100591.53;5046880;28;69255;-40
2022/06/03 07:11:06;;;;;;;9.88;9.20;;;;;;;32.17;66.62;100552.38;5059712;28;65515;-39
2022/06/03 07:13:47;;;;;;;10.77;9.98;;;;;;;32.55;66.65;100621.66;5042106;28;69510;-40
2022/06/03 07:22:32;;;;;;;9.27;8.30;;;;;;;32.43;66.90;100618.94;5051793;28;66394;-46
2022/06/03 07:25:24;;;;;;;9.07;8.32;;;;;;;32.55;66.65;100623.56;5055486;28;70223;-40
2022/06/03 07:28:28;;;;;;;8.57;8.02;;;;;;;32.45;66.86;100611.34;5039301;28;65839;-40
2022/06/03 07:31:11;;;;;;;10.70;7.75;;;;;;;32.51;66.92;100608.78;5039952;28;68966;-39
2022/06/03 07:34:10;;;;;;;8.10;7.40;;;;;;;32.39;67.12;100606.88;5039452;28;66595;-39
2022/06/03 07:36:50;;;;;;;7.85;7.10;;;;;;;32.53;66.70;100614.81;5047667;28;70127;-40
2022/06/03 07:40:03;;;;;;;6.00;5.53;;;;;;;32.16;66.26;100566.19;5048386;28;65800;-40
2022/06/03 07:43:01;;;;;;;6.15;5.53;;;;;;;32.20;66.54;100575.50;5038385;28;70285;-40
2022/06/03 07:45:53;;;;;;;8.20;6.18;;;;;;;32.36;65.98;100588.34;5044451;28;65619;-40
2022/06/03 07:48:27;;;;;;;5.30;4.80;;;;;;;32.19;66.10;100554.84;5055428;28;70010;-41
2022/06/03 07:51:05;;;;;;;7.35;4.55;;;;;;;32.49;65.76;100612.56;5049133;28;66403;-42
2022/06/03 07:53:54;;;;;;;4.43;4.03;;;;;;;32.42;65.63;100584.69;5044797;28;68896;-40
2022/06/03 07:56:29;;;;;;;7.30;4.38;;;;;;;32.15;65.79;100519.25;5041270;28;66539;-40
2022/06/03 07:59:17;;;;;;;4.32;3.80;;;;;;;31.77;65.81;100468.16;5044588;28;70389;-39
2022/06/03 08:02:16;;;;;;;4.75;4.25;;;;;;;32.35;65.74;100551.41;5059477;28;66282;-39
2022/06/03 08:05:19;;;;;;;5.60;4.38;;;;;;;32.10;65.73;100545.44;5038766;28;69831;-40
2022/06/03 08:10:58;;;;;;;4.07;3.67;;;;;;;32.37;65.54;100609.00;5039411;28;69962;-41
2022/06/03 08:13:52;;;;;;;6.97;3.60;;;;;;;32.02;65.37;100569.13;5038690;28;66382;-40
2022/06/03 08:16:38;;;;;;;3.58;3.28;;;;;;;32.03;65.33;100576.19;5044791;28;69703;-40
2022/06/03 08:19:17;;;;;;;3.42;3.22;;;;;;;32.19;65.57;100617.28;5040129;28;66011;-41
2022/06/03 08:21:53;;;;;;;3.97;3.67;;;;;;;32.38;65.92;100667.66;5053347;28;69560;-40
2022/06/03 08:24:35;;;;;;;5.13;3.88;;;;;;;31.94;65.98;100610.16;5050383;28;66722;-40
2022/06/03 08:27:24;;;;;;;4.63;4.22;;;;;;;31.98;65.94;100633.06;5042049;28;69278;-40
2022/06/03 08:30:06;;;;;;;5.05;4.28;;;;;;;32.02;65.94;100634.25;5040810;28;66805;-40
2022/06/03 08:33:03;;;;;;;4.25;3.95;;;;;;;32.21;66.02;100674.88;5038726;28;70475;-40
2022/06/03 08:35:38;;;;;;;4.10;3.50;;;;;;;32.35;65.91;100681.72;5052921;28;68526;-41
2022/06/03 08:38:19;;;;;;;4.28;3.80;;;;;;;31.81;65.71;100594.06;5041159;28;69344;-39
2022/06/03 08:40:54;;;;;;;4.27;3.87;;;;;;;32.32;66.22;100665.06;5048901;28;66921;-40
2022/06/03 08:44:00;;;;;;;6.30;3.30;;;;;;;31.77;66.04;100582.06;5055048;28;69778;-39
2022/06/03 08:47:01;;;;;;;3.80;3.50;;;;;;;32.15;66.01;100644.06;5045375;28;66547;-39
2022/06/03 08:49:47;;;;;;;3.63;3.33;;;;;;;32.16;66.31;100615.84;5045779;28;69593;-39
2022/06/03 08:52:24;;;;;;;3.47;3.17;;;;;;;32.28;65.95;100626.72;5058690;28;67910;-40
2022/06/03 08:54:58;;;;;;;4.22;3.63;;;;;;;32.11;66.01;100598.63;5047680;28;69190;-40
2022/06/03 08:57:52;;;;;;;4.03;3.22;;;;;;;32.13;66.58;100618.22;5041947;28;66569;-39
2022/06/03 09:00:32;;;;;;;2.95;2.75;;;;;;;31.85;65.83;100546.47;5058217;28;70038;-41
2022/06/03 09:03:17;;;;;;;3.55;2.95;;;;;;;31.49;66.08;100485.94;5038952;28;65718;-40
2022/06/03 09:05:53;;;;;;;3.35;3.13;;;;;;;32.23;65.94;100591.31;5039472;28;70614;-40
2022/06/03 09:08:33;;;;;;;3.83;2.85;;;;;;;32.19;65.82;100585.53;5037904;28;67426;-40
2022/06/03 09:11:16;;;;;;;3.20;2.90;;;;;;;32.21;65.97;100582.59;5039649;28;69824;-41
2022/06/03 09:13:59;;;;;;;5.15;2.90;;;;;;;32.07;65.98;100564.88;5056423;28;66030;-41
2022/06/03 09:16:32;;;;;;;5.93;3.08;;;;;;;32.13;65.90;100563.94;5054335;28;69974;-40
2022/06/03 09:19:06;;;;;;;3.67;2.97;;;;;;;32.19;66.09;100571.13;5037688;28;65746;-40
2022/06/03 09:21:41;;;;;;;2.70;2.50;;;;;;;32.17;66.21;100559.69;5038321;28;69441;-40
2022/06/03 09:24:33;;;;;;;3.03;2.83;;;;;;;31.87;65.87;100519.91;5050387;28;65419;-40
2022/06/03 09:27:06;;;;;;;5.63;2.60;;;;;;;32.05;66.11;100536.09;5046203;28;69760;-40
2022/06/03 09:29:38;;;;;;;3.65;2.58;;;;;;;32.15;66.06;100540.09;5042589;28;65562;-41
2022/06/03 09:32:10;;;;;;;4.18;3.08;;;;;;;32.16;65.76;100537.16;5038498;28;69925;-41
2022/06/03 09:34:48;;;;;;;9.27;3.15;;;;;;;32.15;66.12;100523.81;5037382;28;65506;-40
2022/06/03 09:37:29;;;;;;;4.78;2.95;;;;;;;32.12;65.80;100518.88;5036713;28;70000;-40
2022/06/03 09:40:03;;;;;;;3.00;2.80;;;;;;;31.95;65.93;100484.31;5050825;28;66037;-40
2022/06/03 09:42:36;;;;;;;4.82;2.33;;;;;;;32.15;66.22;100512.97;5047411;28;70086;-39
2022/06/03 09:45:08;;;;;;;3.85;2.50;;;;;;;32.11;66.01;100500.94;5052418;28;65374;-39
2022/06/03 09:47:38;;;;;;;;;;;;;;;31.75;67.34;100508.22;5053293;28;70559;-40
2022/06/03 09:50:13;;;;;;;3.60;3.08;;;;;;;32.09;66.55;100494.91;5047829;28;65664;-39
2022/06/03 09:52:45;;;;;;;3.00;2.70;;;;;;;32.06;66.03;100482.66;5056495;28;70275;-40
2022/06/03 09:55:30;;;;;;;3.30;3.00;;;;;;;32.09;66.04;100492.22;5044086;28;66561;-40
2022/06/03 09:58:02;;;;;;;5.10;2.92;;;;;;;32.12;66.25;100483.59;5044440;28;69921;-41
2022/06/03 10:01:08;;;;;;;3.60;3.30;;;;;;;31.92;66.27;100492.94;5045947;28;65864;-41
2022/06/03 10:03:39;;;;;;;4.72;3.70;;;;;;;32.04;66.16;100496.47;5045200;28;69621;-40
2022/06/03 10:06:43;;;;;;;7.30;4.43;;;;;;;31.67;66.11;100428.06;5058423;28;67220;-42
2022/06/03 10:14:41;;;;;;;5.65;5.25;;;;;;;31.45;70.92;100519.97;5041822;28;69944;-40
2022/06/03 10:17:12;;;;;;;6.88;6.15;;;;;;;31.36;70.84;100537.63;5051701;28;66681;-39
2022/06/03 10:19:44;;;;;;;6.05;4.97;;;;;;;31.30;71.13;100533.94;5046494;28;71635;-40
2022/06/03 10:22:14;;;;;;;8.90;6.37;;;;;;;31.22;71.71;100536.16;5042600;28;66926;-39
2022/06/03 10:24:48;;;;;;;6.63;5.97;;;;;;;31.20;72.19;100554.53;5050956;28;69462;-40
2022/06/03 10:27:21;;;;;;;6.85;6.03;;;;;;;31.20;72.14;100570.78;5051887;28;65358;-40
2022/06/03 10:29:52;;;;;;;11.40;6.22;;;;;;;31.11;72.40;100579.22;5046899;28;70716;-39
2022/06/03 10:32:23;;;;;;;11.23;5.95;;;;;;;31.00;72.98;100558.34;5044008;28;66048;-40
2022/06/03 10:35:05;;;;;;;6.25;5.85;;;;;;;31.05;72.59;100580.16;5055527;28;69719;-39
2022/06/03 10:37:35;;;;;;;8.87;6.13;;;;;;;31.00;73.12;100592.72;5046803;28;65986;-38
2022/06/03 10:40:09;;;;;;;13.38;6.68;;;;;;;30.65;72.82;100558.97;5048793;28;70242;-40
2022/06/03 10:42:40;;;;;;;10.65;6.32;;;;;;;30.99;73.34;100635.25;5050074;28;66101;-40
2022/06/03 10:45:11;;;;;;;7.57;6.80;;;;;;;30.93;73.50;100636.16;5051814;28;69052;-39
2022/06/03 10:47:48;;;;;;;11.63;7.63;;;;;;;30.90;73.50;100642.03;5046322;28;66058;-39
2022/06/03 10:50:38;;;;;;;8.70;7.47;;;;;;;30.64;74.10;100622.25;5046091;28;70128;-39
2022/06/03 11:02:04;;;;;;;7.90;7.10;;;;;;;30.56;74.15;100679.41;5044952;28;68678;-39
2022/06/03 11:04:39;;;;;;;7.45;6.75;;;;;;;30.55;74.24;100677.75;5042669;28;66542;-39
2022/06/03 11:07:30;;;;;;;8.70;7.40;;;;;;;30.39;74.65;100683.75;5048435;28;69382;-39
2022/06/03 11:10:15;;;;;;;8.27;7.55;;;;;;;30.16;74.21;100635.63;5049002;28;65479;-40
2022/06/03 11:13:08;;;;;;;9.38;8.20;;;;;;;30.01;75.15;100617.03;5044741;28;69505;-40
2022/06/03 11:15:44;;;;;;;11.98;9.40;;;;;;;30.36;74.72;100678.78;5036320;28;66911;-40
2022/06/03 11:18:22;;;;;;;9.38;8.45;;;;;;;30.11;75.07;100633.56;5040478;28;70040;-39
2022/06/03 11:20:54;;;;;;;11.90;8.23;;;;;;;30.43;74.92;100677.66;5044167;28;66595;-40
2022/06/03 11:23:25;;;;;;;8.32;7.55;;;;;;;30.43;75.02;100679.56;5046723;28;69959;-41
2022/06/03 11:26:00;;;;;;;9.27;6.73;;;;;;;30.36;75.09;100673.34;5041146;28;65995;-40
2022/06/03 11:28:39;;;;;;;8.32;7.30;;;;;;;30.41;75.14;100681.66;5041629;28;69956;-41
2022/06/03 11:31:23;;;;;;;11.77;7.35;;;;;;;29.98;74.71;100601.25;5039494;28;66192;-39
2022/06/03 11:34:32;;;;;;;7.57;6.97;;;;;;;30.21;75.22;100666.38;5042410;28;70261;-41
2022/06/03 11:37:15;;;;;;;8.35;7.55;;;;;;;30.38;75.37;100677.50;5052797;28;66445;-40
2022/06/03 11:40:13;;;;;;;9.82;7.47;;;;;;;30.27;75.11;100681.75;5050453;28;69330;-39
2022/06/03 11:43:19;;;;;;;8.68;6.90;;;;;;;30.33;75.34;100688.16;5044667;28;66503;-39
2022/06/03 11:46:20;;;;;;;10.75;6.25;;;;;;;30.36;73.50;100652.53;5044073;28;70165;-39
2022/06/03 11:48:53;;;;;;;6.93;6.03;;;;;;;30.80;73.07;100704.00;5019269;28;67062;-39
2022/06/03 11:51:25;;;;;;;7.35;6.80;;;;;;;30.82;72.77;100701.91;5043352;28;69968;-39
2022/06/03 11:53:58;;;;;;;7.93;7.22;;;;;;;30.94;72.52;100711.75;5053283;28;66065;-42
2022/06/03 11:56:33;;;;;;;11.48;9.18;;;;;;;30.85;73.75;100726.66;5042933;28;69934;-41
2022/06/03 11:59:17;;;;;;;13.23;11.90;;;;;;;30.65;75.04;100734.94;5051318;28;66736;-39
2022/06/03 12:02:01;;;;;;;15.80;12.80;;;;;;;30.59;75.15;100743.97;5046315;28;68633;-38
2022/06/03 12:04:48;;;;;;;17.75;14.30;;;;;;;30.54;76.01;100751.91;5051189;28;66257;-38
2022/06/03 12:07:41;;;;;;;17.77;13.82;;;;;;;30.23;76.18;100717.59;5042804;28;70182;-38
2022/06/03 12:10:48;;;;;;;24.80;14.18;;;;;;;30.33;76.73;100757.69;5037400;28;65627;-39
2022/06/03 12:13:27;;;;;;;14.23;12.43;;;;;;;30.10;76.56;100702.25;5044762;28;69861;-40
2022/06/03 12:16:17;;;;;;;14.82;11.43;;;;;;;29.88;76.36;100682.03;5048588;28;65925;-39
2022/06/03 12:19:01;;;;;;;14.35;10.73;;;;;;;30.26;77.08;100744.22;5049782;28;70442;-39
2022/06/03 12:21:33;;;;;;;15.68;10.05;;;;;;;30.30;76.83;100750.00;5054911;28;65494;-38
2022/06/03 12:24:31;;;;;;;10.18;9.15;;;;;;;30.22;76.71;100743.81;5038579;28;70219;-39
2022/06/03 12:27:07;;;;;;;10.73;8.40;;;;;;;30.08;77.22;100708.94;5046521;28;66200;-39
2022/06/03 12:29:45;;;;;;;10.82;9.02;;;;;;;30.32;76.62;100743.34;5044233;28;70467;-40
2022/06/03 12:32:28;;;;;;;13.27;9.88;;;;;;;30.23;77.09;100740.06;5043315;28;66009;-46
2022/06/03 12:35:35;;;;;;;11.40;9.98;;;;;;;30.21;77.29;100758.38;5051084;28;69219;-40
2022/06/03 12:38:23;;;;;;;12.38;11.20;;;;;;;30.14;77.58;100757.56;5055733;28;67025;-40
2022/06/03 12:40:57;;;;;;;17.42;11.18;;;;;;;30.22;77.77;100765.47;5052871;28;69667;-47
2022/06/03 12:43:30;;;;;;;10.85;9.90;;;;;;;30.21;77.80;100761.06;5041638;28;66893;-41
2022/06/03 12:46:10;;;;;;;15.57;9.93;;;;;;;30.19;77.39;100768.56;5045144;28;70497;-39
2022/06/03 12:48:47;;;;;;;10.75;9.65;;;;;;;30.22;78.05;100773.56;5044867;28;66317;-40
2022/06/03 12:51:30;;;;;;;12.82;9.13;;;;;;;30.15;78.24;100780.88;5047350;28;69899;-39
2022/06/03 12:54:17;;;;;;;15.98;9.23;;;;;;;30.19;78.23;100781.28;5045073;28;66024;-41
2022/06/03 12:57:05;;;;;;;9.90;8.82;;;;;;;30.23;77.66;100780.66;5045411;28;70118;-40
2022/06/03 12:59:41;;;;;;;9.82;8.25;;;;;;;30.14;78.30;100779.22;5045742;28;66134;-41
2022/06/03 13:02:21;;;;;;;13.15;9.10;;;;;;;30.14;77.86;100783.81;5028015;28;69760;-40
2022/06/03 13:04:55;;;;;;;12.63;8.70;;;;;;;30.15;77.92;100786.31;5033727;28;65140;-41
2022/06/03 13:07:30;;;;;;;11.48;9.85;;;;;;;30.16;78.33;100773.59;5053259;28;69818;-40
2022/06/03 13:10:04;;;;;;;10.70;9.60;;;;;;;30.03;78.69;100744.75;5038379;28;66272;-41
2022/06/03 13:12:35;;;;;;;12.77;10.07;;;;;;;30.15;78.31;100770.06;5041203;28;70147;-40
2022/06/03 13:15:18;;;;;;;8.60;7.80;;;;;;;30.08;78.86;100771.97;5048716;28;64615;-40
2022/06/03 13:18:18;;;;;;;8.90;8.07;;;;;;;30.07;79.06;100778.44;5024062;28;70439;-38
2022/06/03 13:21:02;;;;;;;8.65;7.72;;;;;;;30.15;78.91;100770.06;5048589;28;65691;-37
2022/06/03 13:23:38;;;;;;;8.32;7.72;;;;;;;30.16;78.59;100766.31;5046660;28;70003;-39
2022/06/03 13:26:23;;;;;;;10.60;8.23;;;;;;;30.06;79.29;100772.22;5044050;28;65756;-38
2022/06/03 13:29:04;;;;;;;10.88;7.32;;;;;;;30.24;78.35;100784.19;5051378;28;70388;-37